Time;durP1;ratioP1;P1;durP2;ratioP2;P2;SDS_P1;SDS_P2;PMS_P1;PMS_P2;Temp;Humidity;BMP_temperature;BMP_pressure;BME280_temperature;BME280_humidity;BME280_pressure;Samples;Min_cycle;Max_cycle;Signal;HPM_P1;HPM_P2
2022/07/04 00:00:22;;;;;;;0.88;0.60;;;10.30;99.90;;;;;;5074466;28;20041;-73
2022/07/04 00:02:49;;;;;;;0.08;0.05;;;10.30;99.90;;;;;;5074692;28;20041;-74
2022/07/04 00:05:15;;;;;;;0.00;0.00;;;10.30;99.90;;;;;;5074687;28;20095;-74
2022/07/04 00:07:42;;;;;;;0.08;0.08;;;10.30;99.90;;;;;;5074218;28;20356;-73
2022/07/04 00:10:13;;;;;;;0.00;0.00;;;10.30;99.90;;;;;;5074419;28;20044;-74
2022/07/04 00:12:39;;;;;;;0.55;0.20;;;10.30;99.90;;;;;;5057175;28;20159;-73
2022/07/04 00:15:06;;;;;;;0.00;0.00;;;10.40;99.90;;;;;;5074397;28;20123;-74
2022/07/04 00:17:32;;;;;;;0.40;0.35;;;10.40;99.90;;;;;;5074480;28;20052;-73
2022/07/04 00:19:58;;;;;;;0.43;0.28;;;10.40;99.90;;;;;;5074224;28;20048;-74
2022/07/04 00:22:23;;;;;;;0.00;0.00;;;10.40;99.90;;;;;;5074232;28;20127;-74
2022/07/04 00:24:49;;;;;;;0.10;0.10;;;10.30;99.90;;;;;;5074320;28;20048;-74
2022/07/04 00:27:15;;;;;;;0.00;0.00;;;10.30;99.90;;;;;;5074203;28;20040;-74
2022/07/04 00:29:41;;;;;;;0.80;0.25;;;10.30;99.90;;;;;;5074112;28;20234;-74
2022/07/04 00:32:06;;;;;;;1.42;0.73;;;10.30;99.90;;;;;;5074295;28;20072;-74
2022/07/04 00:34:32;;;;;;;0.00;0.00;;;10.20;99.90;;;;;;5074004;28;20040;-73
2022/07/04 00:36:58;;;;;;;0.00;0.00;;;10.20;99.90;;;;;;5073861;28;20045;-74
2022/07/04 00:39:23;;;;;;;0.15;0.15;;;10.20;99.90;;;;;;5074095;28;20041;-74
2022/07/04 00:41:49;;;;;;;0.30;0.20;;;10.20;99.90;;;;;;5073718;28;20041;-74
2022/07/04 00:44:15;;;;;;;1.13;0.63;;;10.10;99.90;;;;;;5073843;28;20051;-73
2022/07/04 00:46:45;;;;;;;0.08;0.08;;;10.10;99.90;;;;;;5073677;28;20045;-74
2022/07/04 00:49:13;;;;;;;0.00;0.00;;;10.20;99.90;;;;;;5073765;28;20040;-74
2022/07/04 00:51:40;;;;;;;0.00;0.00;;;10.20;99.90;;;;;;5073694;28;20044;-74
2022/07/04 00:54:08;;;;;;;1.65;0.90;;;10.20;99.90;;;;;;5073432;28;20037;-74
2022/07/04 00:56:37;;;;;;;0.00;0.00;;;10.10;99.90;;;;;;5073459;28;20375;-74
2022/07/04 00:59:02;;;;;;;0.00;0.00;;;10.10;99.90;;;;;;5073160;28;20093;-74
2022/07/04 01:01:28;;;;;;;0.00;0.00;;;10.10;99.90;;;;;;5073324;28;20123;-74
2022/07/04 01:03:55;;;;;;;0.85;0.28;;;10.10;99.90;;;;;;5073421;28;20044;-74
2022/07/04 01:06:21;;;;;;;0.25;0.25;;;10.10;99.90;;;;;;5073557;28;20079;-73
2022/07/04 01:08:47;;;;;;;0.20;0.10;;;10.10;99.90;;;;;;5073428;28;20072;-73
2022/07/04 01:11:13;;;;;;;0.00;0.00;;;10.20;99.90;;;;;;5073300;28;20041;-73
2022/07/04 01:13:42;;;;;;;0.20;0.20;;;10.10;99.90;;;;;;5073321;28;20171;-73
2022/07/04 01:16:09;;;;;;;0.20;0.20;;;10.10;99.90;;;;;;5073444;28;20040;-74
2022/07/04 01:18:36;;;;;;;0.00;0.00;;;10.10;99.90;;;;;;5073694;28;20113;-74
2022/07/04 01:21:02;;;;;;;0.00;0.00;;;10.10;99.90;;;;;;5055567;28;20071;-74
2022/07/04 01:23:28;;;;;;;0.45;0.45;;;10.10;99.90;;;;;;5072905;28;20495;-75
2022/07/04 01:25:54;;;;;;;0.10;0.05;;;10.00;99.90;;;;;;5073560;28;20124;-74
2022/07/04 01:28:22;;;;;;;0.20;0.20;;;10.00;99.90;;;;;;5055195;28;20052;-73
2022/07/04 01:30:48;;;;;;;0.08;0.00;;;9.90;99.90;;;;;;5073153;28;20392;-74
2022/07/04 01:33:14;;;;;;;0.10;0.10;;;9.90;99.90;;;;;;5072629;28;20044;-73
2022/07/04 01:35:40;;;;;;;0.00;0.00;;;9.80;99.90;;;;;;5072954;28;20498;-74
2022/07/04 01:38:06;;;;;;;0.25;0.17;;;9.80;99.90;;;;;;5072771;28;20098;-74
2022/07/04 01:40:31;;;;;;;0.20;0.10;;;9.80;99.90;;;;;;5073172;28;20079;-74
2022/07/04 01:42:58;;;;;;;0.40;0.30;;;9.80;99.90;;;;;;5072885;28;20055;-75
2022/07/04 01:45:24;;;;;;;0.35;0.32;;;9.70;99.90;;;;;;5073256;28;20045;-75
2022/07/04 01:47:50;;;;;;;0.38;0.20;;;9.70;99.90;;;;;;5072832;28;20402;-74
2022/07/04 01:50:16;;;;;;;0.15;0.10;;;9.60;99.90;;;;;;5072777;28;20036;-74
2022/07/04 01:52:42;;;;;;;0.03;0.03;;;9.70;99.90;;;;;;5072558;28;20048;-75
2022/07/04 01:55:09;;;;;;;1.73;0.50;;;9.60;99.90;;;;;;5054632;28;20048;-75
2022/07/04 01:57:35;;;;;;;0.00;0.00;;;9.60;99.90;;;;;;5072578;28;20383;-74
2022/07/04 02:02:44;;;;;;;0.32;0.28;;;9.60;99.90;;;;;;5054830;28;20052;-74
2022/07/04 02:05:10;;;;;;;0.00;0.00;;;9.60;99.90;;;;;;5072561;28;20123;-74
2022/07/04 02:07:36;;;;;;;0.00;0.00;;;9.60;99.90;;;;;;5072553;28;20482;-74
2022/07/04 02:10:02;;;;;;;0.15;0.15;;;9.60;99.90;;;;;;5076012;28;20044;-74
2022/07/04 02:15:12;;;;;;;0.22;0.22;;;9.60;99.90;;;;;;5076677;28;20127;-74
2022/07/04 02:17:37;;;;;;;0.08;0.08;;;9.60;99.90;;;;;;5076194;28;20494;-74
2022/07/04 02:20:07;;;;;;;0.80;0.43;;;9.50;99.90;;;;;;5076658;28;20056;-74
2022/07/04 02:22:32;;;;;;;0.00;0.00;;;9.60;99.90;;;;;;5058574;28;20106;-74
2022/07/04 02:24:58;;;;;;;0.73;0.57;;;9.70;99.90;;;;;;5076394;28;20120;-74
2022/07/04 02:27:24;;;;;;;0.50;0.45;;;9.70;99.90;;;;;;5076349;28;20483;-74
2022/07/04 02:29:49;;;;;;;0.00;0.00;;;9.70;99.90;;;;;;5076668;28;20037;-74
2022/07/04 02:32:15;;;;;;;0.95;0.63;;;9.80;99.90;;;;;;5075924;28;20055;-74
2022/07/04 02:34:41;;;;;;;0.00;0.00;;;9.80;99.90;;;;;;5076369;28;20087;-74
2022/07/04 02:37:06;;;;;;;0.22;0.22;;;9.80;99.90;;;;;;5076307;28;20174;-74
2022/07/04 02:39:32;;;;;;;0.22;0.22;;;9.80;99.90;;;;;;5076138;28;20562;-74
2022/07/04 02:41:58;;;;;;;2.13;0.55;;;9.80;99.90;;;;;;5076063;28;20045;-74
2022/07/04 02:44:23;;;;;;;0.70;0.55;;;9.80;99.90;;;;;;5076148;28;20051;-74
2022/07/04 02:46:49;;;;;;;0.08;0.08;;;9.80;99.90;;;;;;5075797;28;20441;-74
2022/07/04 02:49:14;;;;;;;0.20;0.20;;;9.80;99.90;;;;;;5075762;28;20037;-74
2022/07/04 02:51:41;;;;;;;0.73;0.30;;;9.80;99.90;;;;;;5075949;28;20406;-74
2022/07/04 02:54:07;;;;;;;0.30;0.13;;;9.70;99.90;;;;;;5075853;28;20095;-74
2022/07/04 02:56:33;;;;;;;0.00;0.00;;;10.90;99.90;;;;;;5075749;28;20057;-74
2022/07/04 02:58:58;;;;;;;0.20;0.13;;;9.70;99.90;;;;;;5075749;28;20494;-73
2022/07/04 03:01:24;;;;;;;2.05;0.32;;;9.70;99.90;;;;;;5075545;28;20040;-74
2022/07/04 03:03:50;;;;;;;0.30;0.20;;;9.70;99.90;;;;;;5075732;28;20098;-74
2022/07/04 03:06:16;;;;;;;0.10;0.10;;;10.80;99.90;;;;;;5075657;28;20040;-74
2022/07/04 03:08:41;;;;;;;0.28;0.28;;;9.60;99.90;;;;;;5075458;28;20048;-74
2022/07/04 03:11:07;;;;;;;1.55;0.50;;;9.60;99.90;;;;;;5075522;28;20048;-74
2022/07/04 03:13:32;;;;;;;0.55;0.55;;;9.90;99.90;;;;;;5075472;28;20047;-74
2022/07/04 03:15:58;;;;;;;0.30;0.30;;;9.60;99.90;;;;;;5075435;28;20047;-74
2022/07/04 03:18:24;;;;;;;0.45;0.13;;;9.60;99.90;;;;;;5075542;28;20329;-74
2022/07/04 03:20:49;;;;;;;0.10;0.10;;;9.60;99.90;;;;;;5074585;28;20041;-74
2022/07/04 03:23:16;;;;;;;1.27;0.45;;;9.60;99.90;;;;;;5075202;28;20074;-74
2022/07/04 03:25:42;;;;;;;0.45;0.32;;;9.60;99.90;;;;;;5075304;28;20089;-74
2022/07/04 03:28:08;;;;;;;0.03;0.03;;;9.60;99.90;;;;;;5075186;28;20402;-74
2022/07/04 03:30:34;;;;;;;0.20;0.20;;;9.60;99.90;;;;;;5075053;28;20036;-74
2022/07/04 03:33:00;;;;;;;0.45;0.45;;;9.60;99.90;;;;;;5074860;28;20033;-74
2022/07/04 03:35:25;;;;;;;0.57;0.15;;;9.60;99.90;;;;;;5075403;28;20128;-74
2022/07/04 03:37:51;;;;;;;0.45;0.43;;;9.60;99.90;;;;;;5075007;28;20394;-73
2022/07/04 03:40:18;;;;;;;0.00;0.00;;;9.60;99.90;;;;;;5075071;28;20048;-74
2022/07/04 03:42:43;;;;;;;0.40;0.25;;;9.70;99.90;;;;;;5074904;28;20040;-74
2022/07/04 03:45:10;;;;;;;0.20;0.20;;;9.80;99.90;;;;;;5074797;28;20486;-74
2022/07/04 03:47:35;;;;;;;1.73;1.08;;;9.90;99.90;;;;;;5074897;28;20463;-74
2022/07/04 03:50:01;;;;;;;0.70;0.70;;;9.90;99.90;;;;;;5074899;28;20112;-74
2022/07/04 03:52:27;;;;;;;0.88;0.38;;;10.40;99.90;;;;;;5074546;28;20044;-75
2022/07/04 03:54:53;;;;;;;0.00;0.00;;;10.00;99.90;;;;;;5074605;28;20468;-74
2022/07/04 03:57:18;;;;;;;0.32;0.30;;;10.10;99.90;;;;;;5074549;28;20055;-74
2022/07/04 03:59:44;;;;;;;0.55;0.55;;;10.10;99.90;;;;;;5074361;28;20044;-74
2022/07/04 04:02:10;;;;;;;0.47;0.45;;;10.10;99.90;;;;;;5074390;28;20132;-74
2022/07/04 04:07:19;;;;;;;1.85;0.82;;;10.20;99.90;;;;;;5074359;28;20106;-74
2022/07/04 04:09:45;;;;;;;0.80;0.43;;;10.20;99.90;;;;;;5074264;28;20048;-74
2022/07/04 04:12:11;;;;;;;1.25;0.35;;;10.20;99.90;;;;;;5074208;28;20490;-74
2022/07/04 04:14:36;;;;;;;0.20;0.20;;;10.30;99.90;;;;;;5074500;28;20048;-74
2022/07/04 04:17:02;;;;;;;0.57;0.30;;;10.30;99.90;;;;;;5074566;28;20044;-74
2022/07/04 04:19:28;;;;;;;0.40;0.38;;;10.40;99.90;;;;;;5074300;28;20514;-74
2022/07/04 04:21:53;;;;;;;0.98;0.55;;;10.50;99.90;;;;;;5074230;28;20498;-74
2022/07/04 04:24:19;;;;;;;0.32;0.20;;;10.60;99.90;;;;;;5073938;28;20059;-74
2022/07/04 04:26:44;;;;;;;0.55;0.25;;;10.70;99.90;;;;;;5073961;28;20037;-74
2022/07/04 04:29:10;;;;;;;1.58;1.48;;;10.70;99.90;;;;;;5073908;28;20123;-75
2022/07/04 04:31:35;;;;;;;1.08;0.68;;;10.80;99.90;;;;;;5073434;28;20391;-74
2022/07/04 04:34:01;;;;;;;0.70;0.57;;;11.00;99.90;;;;;;5073412;28;20059;-74
2022/07/04 04:36:27;;;;;;;0.43;0.30;;;11.10;99.90;;;;;;5073847;28;20431;-74
2022/07/04 04:38:52;;;;;;;0.70;0.65;;;11.30;99.90;;;;;;5074035;28;20036;-75
2022/07/04 04:41:18;;;;;;;0.28;0.28;;;11.50;99.90;;;;;;5073724;28;20122;-74
2022/07/04 04:43:44;;;;;;;1.10;0.47;;;11.60;99.90;;;;;;5073612;28;20127;-74
2022/07/04 04:46:09;;;;;;;0.93;0.75;;;11.70;99.90;;;;;;5073677;28;20083;-75
2022/07/04 04:48:35;;;;;;;4.80;1.85;;;11.90;99.90;;;;;;5073580;28;20066;-75
2022/07/04 04:51:00;;;;;;;1.33;0.93;;;12.10;99.90;;;;;;5073599;28;20044;-75
2022/07/04 04:53:26;;;;;;;0.45;0.45;;;12.50;99.90;;;;;;5073453;28;20127;-75
2022/07/04 04:55:55;;;;;;;0.40;0.40;;;13.10;99.90;;;;;;5073600;28;20036;-74
2022/07/04 04:58:21;;;;;;;1.10;0.93;;;13.80;99.90;;;;;;5073039;28;20064;-75
2022/07/04 05:00:49;;;;;;;0.35;0.30;;;14.50;99.90;;;;;;5073410;28;20059;-75
2022/07/04 05:03:15;;;;;;;2.13;0.50;;;15.20;99.90;;;;;;5073191;28;20495;-75
2022/07/04 05:05:41;;;;;;;2.42;1.02;;;15.30;99.90;;;;;;5073361;28;20037;-75
2022/07/04 05:08:07;;;;;;;0.20;0.10;;;15.60;99.90;;;;;;5073156;28;20043;-74
2022/07/04 05:10:33;;;;;;;0.45;0.40;;;16.00;99.90;;;;;;5073550;28;20097;-75
2022/07/04 05:12:59;;;;;;;0.38;0.38;;;15.80;99.90;;;;;;5073245;28;20121;-75
2022/07/04 05:15:24;;;;;;;0.20;0.20;;;15.70;99.90;;;;;;5073429;28;20079;-75
2022/07/04 05:17:50;;;;;;;0.65;0.40;;;16.00;99.90;;;;;;5073079;28;20502;-75
2022/07/04 05:20:16;;;;;;;0.22;0.22;;;16.60;99.90;;;;;;5073105;28;20047;-76
2022/07/04 05:22:41;;;;;;;2.63;0.85;;;17.10;99.90;;;;;;5073050;28;20043;-75
2022/07/04 05:25:07;;;;;;;0.73;0.57;;;17.60;99.90;;;;;;5073046;28;20133;-75
2022/07/04 05:27:33;;;;;;;0.30;0.20;;;17.90;99.90;;;;;;5073474;28;20045;-76
2022/07/04 05:29:59;;;;;;;0.63;0.55;;;18.20;99.90;;;;;;5073174;28;20067;-75
2022/07/04 05:32:26;;;;;;;0.00;0.00;;;18.60;99.90;;;;;;5073117;28;20482;-75
2022/07/04 05:34:51;;;;;;;0.55;0.52;;;19.00;99.90;;;;;;5072849;28;20043;-76
2022/07/04 05:37:17;;;;;;;12.05;1.08;;;19.20;99.90;;;;;;5072501;28;20044;-75
2022/07/04 05:39:43;;;;;;;0.65;0.40;;;19.20;99.90;;;;;;5072522;28;20054;-74
2022/07/04 05:42:08;;;;;;;0.10;0.10;;;19.20;99.90;;;;;;5072375;28;20139;-74
2022/07/04 05:44:34;;;;;;;0.08;0.08;;;19.30;99.90;;;;;;5072268;28;20094;-74
2022/07/04 05:47:00;;;;;;;9.63;1.70;;;19.60;99.90;;;;;;5072389;28;20053;-73
2022/07/04 05:49:25;;;;;;;0.30;0.30;;;19.80;99.90;;;;;;5072181;28;20089;-74
2022/07/04 05:51:51;;;;;;;0.40;0.40;;;20.30;99.90;;;;;;5072254;28;20052;-74
2022/07/04 05:54:17;;;;;;;0.57;0.57;;;20.50;99.90;;;;;;5072131;28;20436;-74
2022/07/04 05:56:43;;;;;;;0.25;0.25;;;20.60;99.90;;;;;;5072251;28;20072;-76
2022/07/04 05:59:09;;;;;;;0.35;0.20;;;21.10;99.90;;;;;;5072455;28;20045;-73
2022/07/04 06:01:36;;;;;;;1.23;0.90;;;21.40;99.90;;;;;;5072316;28;20044;-74
2022/07/04 06:04:02;;;;;;;0.95;0.82;;;21.60;99.90;;;;;;5072230;28;20115;-74
2022/07/04 06:06:29;;;;;;;0.43;0.30;;;22.00;99.90;;;;;;5072071;28;20032;-75
2022/07/04 06:08:56;;;;;;;0.20;0.20;;;22.20;99.90;;;;;;5072054;28;20041;-74
2022/07/04 06:11:22;;;;;;;0.10;0.10;;;22.50;99.90;;;;;;5072376;28;20033;-74
2022/07/04 06:13:48;;;;;;;0.40;0.40;;;22.60;99.90;;;;;;5072182;28;20109;-74
2022/07/04 06:16:14;;;;;;;0.55;0.55;;;22.80;99.90;;;;;;5072051;28;20471;-75
2022/07/04 06:18:40;;;;;;;0.22;0.22;;;22.60;99.90;;;;;;5071875;28;20493;-74
2022/07/04 06:21:06;;;;;;;1.95;1.25;;;22.40;99.90;;;;;;5072004;28;20032;-74
2022/07/04 06:23:32;;;;;;;0.40;0.38;;;22.40;99.90;;;;;;5071820;28;20059;-74
2022/07/04 06:25:58;;;;;;;0.30;0.30;;;22.60;99.90;;;;;;5054038;28;20064;-74
2022/07/04 06:28:23;;;;;;;0.45;0.35;;;22.60;99.90;;;;;;5072163;28;20124;-75
2022/07/04 06:30:49;;;;;;;0.77;0.45;;;22.90;99.90;;;;;;5071998;28;20044;-74
2022/07/04 06:33:14;;;;;;;0.73;0.57;;;23.20;99.90;;;;;;5071756;28;20067;-74
2022/07/04 06:35:46;;;;;;;0.63;0.30;;;23.30;99.90;;;;;;5071905;28;20079;-74
2022/07/04 06:38:21;;;;;;;7.13;0.75;;;23.40;99.90;;;;;;5071752;28;20068;-74
2022/07/04 06:40:50;;;;;;;0.50;0.50;;;23.60;96.00;;;;;;5072034;28;20106;-74
2022/07/04 06:43:16;;;;;;;33.13;1.15;;;23.70;96.30;;;;;;5071882;28;20040;-74
2022/07/04 06:45:41;;;;;;;0.20;0.20;;;24.00;94.80;;;;;;5071739;28;20105;-74
2022/07/04 06:48:07;;;;;;;2.20;0.52;;;24.00;97.10;;;;;;5071731;28;20072;-74
2022/07/04 06:50:34;;;;;;;5.15;0.70;;;24.30;91.50;;;;;;5071639;28;20033;-74
2022/07/04 06:53:01;;;;;;;2.00;1.00;;;24.00;95.50;;;;;;5071761;28;20076;-74
2022/07/04 06:55:26;;;;;;;0.10;0.10;;;24.10;90.50;;;;;;5072489;28;20051;-74
2022/07/04 06:57:52;;;;;;;0.57;0.50;;;23.90;93.60;;;;;;5075151;28;20052;-74
2022/07/04 07:00:17;;;;;;;1.88;0.38;;;23.90;96.10;;;;;;5075172;28;20134;-74
2022/07/04 07:02:43;;;;;;;0.55;0.38;;;24.20;95.50;;;;;;5075215;28;20043;-74
2022/07/04 07:05:09;;;;;;;0.10;0.10;;;24.50;93.80;;;;;;5075000;28;20064;-74
2022/07/04 07:07:34;;;;;;;0.25;0.17;;;24.60;92.70;;;;;;5075086;28;20044;-74
2022/07/04 07:10:02;;;;;;;0.30;0.13;;;24.60;92.20;;;;;;5075305;28;20475;-74
2022/07/04 07:12:29;;;;;;;0.05;0.03;;;24.00;96.10;;;;;;5075245;28;20048;-74
2022/07/04 07:14:54;;;;;;;0.75;0.43;;;23.70;95.20;;;;;;5075116;28;20127;-73
2022/07/04 07:17:20;;;;;;;0.55;0.35;;;23.70;99.40;;;;;;5074970;28;20075;-73
2022/07/04 07:19:46;;;;;;;0.00;0.00;;;23.60;99.90;;;;;;5075062;28;20090;-75
2022/07/04 07:22:13;;;;;;;0.00;0.00;;;23.70;99.80;;;;;;5074880;28;20429;-74
2022/07/04 07:24:39;;;;;;;0.10;0.10;;;24.00;96.20;;;;;;5075040;28;20044;-74
2022/07/04 07:27:05;;;;;;;0.47;0.38;;;23.50;98.60;;;;;;5074990;28;20518;-74
2022/07/04 07:29:31;;;;;;;0.57;0.50;;;22.80;99.90;;;;;;5074865;28;20090;-74
2022/07/04 07:31:57;;;;;;;0.22;0.20;;;22.10;99.90;;;;;;5074686;28;20041;-74
2022/07/04 07:34:23;;;;;;;1.25;0.93;;;21.70;99.90;;;;;;5074569;28;20063;-74
2022/07/04 07:36:49;;;;;;;0.00;0.00;;;21.80;99.90;;;;;;5074672;28;20033;-74
2022/07/04 07:39:14;;;;;;;1.25;0.50;;;21.90;99.90;;;;;;5074620;28;20079;-74
2022/07/04 07:41:40;;;;;;;0.08;0.08;;;21.90;99.90;;;;;;5056743;28;20047;-74
2022/07/04 07:44:06;;;;;;;0.15;0.15;;;22.70;99.90;;;;;;5074606;28;20133;-74
2022/07/04 07:46:32;;;;;;;2.65;0.47;;;23.80;99.90;;;;;;5074458;28;20049;-74
2022/07/04 07:48:58;;;;;;;1.75;0.75;;;24.50;99.90;;;;;;5074231;28;20033;-74
2022/07/04 07:51:23;;;;;;;0.30;0.25;;;25.20;92.20;;;;;;5074600;28;20115;-74
2022/07/04 07:53:49;;;;;;;1.30;0.60;;;25.50;86.50;;;;;;5074122;28;20458;-74
2022/07/04 07:56:14;;;;;;;0.22;0.13;;;26.00;72.60;;;;;;5074283;28;20036;-74
2022/07/04 07:58:40;;;;;;;0.20;0.20;;;25.80;82.50;;;;;;5074213;28;20040;-74
2022/07/04 08:01:06;;;;;;;0.17;0.15;;;26.10;69.20;;;;;;5074294;28;20040;-74
2022/07/04 08:06:15;;;;;;;0.45;0.45;;;26.60;56.20;;;;;;5073998;28;20133;-74
2022/07/04 08:08:42;;;;;;;0.00;0.00;;;26.40;47.40;;;;;;5074212;28;20036;-74
2022/07/04 08:11:09;;;;;;;0.85;0.68;;;25.60;64.10;;;;;;5074101;28;20044;-74
2022/07/04 08:13:35;;;;;;;0.00;0.00;;;25.20;68.50;;;;;;5073979;28;20090;-74
2022/07/04 08:16:00;;;;;;;0.80;0.52;;;25.00;67.80;;;;;;5073767;28;20486;-74
2022/07/04 08:18:26;;;;;;;0.55;0.40;;;24.60;66.30;;;;;;5073996;28;20041;-74
2022/07/04 08:20:52;;;;;;;0.20;0.10;;;24.80;67.80;;;;;;5073887;28;20550;-74
2022/07/04 08:23:18;;;;;;;0.13;0.13;;;25.20;54.10;;;;;;5073893;28;20128;-74
2022/07/04 08:25:43;;;;;;;0.00;0.00;;;25.30;52.20;;;;;;5074092;28;20545;-74
2022/07/04 08:28:09;;;;;;;0.15;0.15;;;25.70;55.50;;;;;;5073771;28;20123;-74
2022/07/04 08:30:35;;;;;;;0.00;0.00;;;26.20;41.60;;;;;;5073861;28;20406;-74
2022/07/04 08:33:01;;;;;;;0.30;0.30;;;25.80;37.60;;;;;;5073370;28;20044;-74
2022/07/04 08:35:27;;;;;;;0.00;0.00;;;25.00;39.70;;;;;;5073625;28;20510;-74
2022/07/04 08:37:55;;;;;;;0.22;0.20;;;24.10;59.70;;;;;;5073784;28;20052;-73
2022/07/04 08:40:29;;;;;;;0.45;0.32;;;24.20;55.20;;;;;;5073687;28;20399;-74
2022/07/04 08:42:54;;;;;;;0.00;0.00;;;24.10;60.40;;;;;;5073418;28;20040;-74
2022/07/04 08:45:30;;;;;;;1.05;0.35;;;24.60;67.90;;;;;;5073229;28;20439;-74
2022/07/04 08:48:01;;;;;;;4.38;0.85;;;25.40;59.10;;;;;;5073030;28;20448;-74
2022/07/04 08:50:31;;;;;;;0.00;0.00;;;25.20;51.20;;;;;;5073499;28;20115;-75
2022/07/04 08:53:01;;;;;;;0.00;0.00;;;24.70;64.60;;;;;;5073190;28;20043;-74
2022/07/04 08:58:31;;;;;;;0.10;0.10;;;25.80;78.50;;;;;;5054909;28;20052;-75
2022/07/04 09:01:05;;;;;;;0.00;0.00;;;26.30;40.30;;;;;;5073318;28;20391;-74
2022/07/04 09:03:31;;;;;;;0.03;0.03;;;25.80;26.60;;;;;;5073028;28;20058;-75
2022/07/04 09:05:57;;;;;;;0.20;0.08;;;25.00;38.50;;;;;;5072883;28;20072;-75
2022/07/04 09:08:24;;;;;;;0.00;0.00;;;24.40;54.80;;;;;;5038406;28;20044;-74
2022/07/04 09:10:51;;;;;;;0.00;0.00;;;24.80;58.90;;;;;;5073139;28;20076;-74
2022/07/04 09:13:17;;;;;;;0.75;0.30;;;25.40;31.00;;;;;;5072959;28;20174;-74
2022/07/04 09:15:45;;;;;;;2.72;0.63;;;26.00;23.90;;;;;;5072975;28;20044;-74
2022/07/04 09:18:25;;;;;;;0.47;0.45;;;26.70;18.10;;;;;;5072084;28;20048;-74
2022/07/04 09:20:52;;;;;;;0.03;0.03;;;27.30;13.50;;;;;;5072802;28;20393;-74
2022/07/04 09:23:21;;;;;;;0.50;0.25;;;27.90;14.70;;;;;;5054655;28;20046;-75
2022/07/04 09:26:08;;;;;;;0.38;0.30;;;28.20;10.60;;;;;;5072847;28;20430;-74
2022/07/04 09:28:34;;;;;;;0.10;0.10;;;28.50;9.10;;;;;;5071876;28;20059;-75
2022/07/04 09:31:00;;;;;;;0.52;0.35;;;28.40;6.70;;;;;;5072470;28;20041;-74
2022/07/04 09:33:44;;;;;;;0.10;0.10;;;27.40;1.00;;;;;;5072701;28;20055;-75
2022/07/04 09:36:15;;;;;;;0.00;0.00;;;26.00;5.40;;;;;;5072713;28;20040;-75
2022/07/04 09:38:41;;;;;;;0.28;0.13;;;25.20;17.60;;;;;;5054694;28;20041;-75
2022/07/04 09:41:24;;;;;;;0.00;0.00;;;24.40;25.80;;;;;;5072539;28;20047;-74
2022/07/04 09:44:05;;;;;;;0.88;0.30;;;23.90;46.30;;;;;;5072849;28;20048;-75
2022/07/04 09:46:33;;;;;;;0.00;0.00;;;23.40;64.70;;;;;;5072373;28;20525;-75
2022/07/04 09:48:59;;;;;;;0.00;0.00;;;23.90;52.30;;;;;;5072379;28;20045;-74
2022/07/04 09:51:42;;;;;;;0.00;0.00;;;24.50;30.20;;;;;;5072463;28;20048;-75
2022/07/04 09:54:25;;;;;;;0.38;0.35;;;24.80;45.50;;;;;;5072207;28;20123;-74
2022/07/04 09:56:52;;;;;;;0.00;0.00;;;25.50;27.80;;;;;;5072424;28;20098;-75
2022/07/04 09:59:19;;;;;;;5.45;0.73;;;25.70;12.40;;;;;;5072408;28;20033;-75
2022/07/04 10:01:45;;;;;;;0.15;0.15;;;25.90;17.40;;;;;;5072394;28;20044;-75
2022/07/04 10:04:13;;;;;;;0.30;0.17;;;26.00;9.40;;;;;;5072192;28;20040;-74
2022/07/04 10:06:40;;;;;;;0.10;0.08;;;25.80;9.40;;;;;;5072088;28;20127;-75
2022/07/04 10:09:17;;;;;;;0.00;0.00;;;25.20;12.50;;;;;;5072349;28;20040;-74
2022/07/04 10:11:46;;;;;;;0.00;0.00;;;24.80;16.00;;;;;;5072392;28;20037;-74
2022/07/04 10:14:13;;;;;;;0.10;0.10;;;24.60;15.60;;;;;;5072265;28;20126;-75
2022/07/04 10:16:40;;;;;;;0.00;0.00;;;24.40;8.40;;;;;;5072165;28;20060;-74
2022/07/04 10:19:08;;;;;;;0.00;0.00;;;24.20;10.60;;;;;;5072559;28;20370;-75
2022/07/04 10:21:34;;;;;;;0.20;0.05;;;24.10;17.10;;;;;;5072156;28;20406;-74
2022/07/04 10:24:00;;;;;;;0.00;0.00;;;24.00;13.40;;;;;;5071975;28;20048;-74
2022/07/04 10:26:28;;;;;;;0.00;0.00;;;23.70;14.10;;;;;;5072205;28;20041;-74
2022/07/04 10:28:54;;;;;;;0.00;0.00;;;23.50;15.60;;;;;;5053987;28;20044;-75
2022/07/04 10:31:23;;;;;;;0.30;0.08;;;23.20;18.40;;;;;;5075598;28;20050;-74
2022/07/04 10:33:49;;;;;;;0.00;0.00;;;23.00;17.50;;;;;;5075823;28;20372;-74
2022/07/04 10:36:22;;;;;;;0.00;0.00;;;22.90;15.20;;;;;;5075961;28;20371;-75
2022/07/04 10:38:53;;;;;;;0.70;0.17;;;22.80;16.50;;;;;;5057769;28;20049;-74
2022/07/04 10:41:21;;;;;;;1.00;0.47;;;22.80;19.70;;;;;;5057853;28;20067;-75
2022/07/04 10:43:54;;;;;;;0.00;0.00;;;22.90;27.30;;;;;;5075655;28;20060;-74
2022/07/04 10:46:31;;;;;;;0.00;0.00;;;23.20;23.50;;;;;;5075780;28;20075;-75
2022/07/04 10:49:13;;;;;;;0.10;0.10;;;23.50;22.20;;;;;;5075635;28;20040;-74
2022/07/04 10:51:47;;;;;;;0.10;0.10;;;23.60;21.90;;;;;;5075383;28;20498;-75
2022/07/04 10:54:24;;;;;;;0.43;0.20;;;23.70;24.90;;;;;;5075357;28;20040;-75
2022/07/04 10:57:05;;;;;;;0.10;0.10;;;23.90;18.00;;;;;;5075566;28;20055;-75
2022/07/04 10:59:31;;;;;;;0.00;0.00;;;24.10;21.70;;;;;;5075466;28;20059;-75
2022/07/04 11:02:06;;;;;;;0.00;0.00;;;24.10;21.10;;;;;;5075464;28;20075;-75
2022/07/04 11:04:53;;;;;;;0.30;0.25;;;23.90;18.90;;;;;;5075352;28;20127;-73
2022/07/04 11:07:29;;;;;;;0.00;0.00;;;23.80;28.00;;;;;;5075314;28;20045;-72
2022/07/04 11:10:21;;;;;;;;;;;24.10;29.60;;;;;;5075608;28;20036;-72
2022/07/04 11:12:55;;;;;;;0.10;0.10;;;24.70;21.20;;;;;;5075115;28;19926;-75
2022/07/04 11:15:33;;;;;;;0.00;0.00;;;25.20;10.30;;;;;;5074982;28;20044;-74
2022/07/04 11:18:03;;;;;;;0.00;0.00;;;25.50;8.40;;;;;;5074985;28;20041;-73
2022/07/04 11:20:30;;;;;;;0.10;0.10;;;25.90;8.30;;;;;;5075135;28;20044;-73
2022/07/04 11:23:07;;;;;;;0.10;0.10;;;26.30;6.90;;;;;;5074813;28;20040;-72
2022/07/04 11:25:33;;;;;;;0.00;0.00;;;26.00;7.20;;;;;;5074816;28;20048;-72
2022/07/04 11:28:38;;;;;;;0.40;0.20;;;25.40;11.20;;;;;;5074998;28;20513;-73
2022/07/04 11:31:03;;;;;;;0.25;0.15;;;24.60;10.40;;;;;;5074309;28;20410;-72
2022/07/04 11:33:32;;;;;;;0.00;0.00;;;24.60;14.40;;;;;;5074617;28;20047;-73
2022/07/04 11:36:09;;;;;;;0.00;0.00;;;24.80;14.90;;;;;;5074455;28;20036;-73
2022/07/04 11:38:54;;;;;;;0.10;0.10;;;25.40;11.40;;;;;;5075040;28;20076;-73
2022/07/04 11:47:06;;;;;;;0.05;0.05;;;27.40;1.00;;;;;;5075405;28;20087;-74
2022/07/04 11:49:32;;;;;;;0.52;0.45;;;27.80;1.00;;;;;;5075540;28;20041;-74
2022/07/04 11:51:58;;;;;;;0.10;0.10;;;26.60;1.00;;;;;;5074939;28;20040;-75
2022/07/04 11:54:23;;;;;;;0.20;0.10;;;26.40;1.80;;;;;;5075062;28;20044;-75
2022/07/04 11:56:49;;;;;;;0.00;0.00;;;25.80;4.60;;;;;;5074568;28;20135;-73
2022/07/04 11:59:16;;;;;;;0.10;0.10;;;26.00;2.50;;;;;;5075041;28;20127;-74
2022/07/04 12:01:43;;;;;;;0.28;0.28;;;27.00;1.00;;;;;;5074614;28;20450;-73
2022/07/04 12:04:13;;;;;;;0.60;0.30;;;27.40;1.00;;;;;;5074586;28;20056;-75
2022/07/04 12:06:39;;;;;;;0.00;0.00;;;26.60;1.00;;;;;;5074748;28;20406;-73
2022/07/04 12:09:05;;;;;;;0.20;0.15;;;25.70;1.00;;;;;;5074618;28;20044;-73
2022/07/04 12:11:57;;;;;;;0.70;0.47;;;26.10;1.50;;;;;;5074574;28;20052;-74
2022/07/04 12:14:23;;;;;;;0.90;0.45;;;26.70;1.00;;;;;;5074358;28;20410;-73
2022/07/04 12:16:49;;;;;;;0.00;0.00;;;27.80;1.00;;;;;;5074493;28;20048;-75
2022/07/04 12:19:14;;;;;;;0.00;0.00;;;27.10;1.00;;;;;;5074335;28;20044;-74
2022/07/04 12:21:42;;;;;;;0.00;0.00;;;26.50;1.00;;;;;;5074200;28;20425;-74
2022/07/04 12:24:08;;;;;;;2.55;0.45;;;27.00;1.00;;;;;;5056173;28;20048;-74
2022/07/04 12:26:44;;;;;;;0.00;0.00;;;27.40;1.00;;;;;;5074339;28;20042;-74
2022/07/04 12:29:09;;;;;;;0.03;0.03;;;27.50;1.00;;;;;;5074199;28;20048;-73
2022/07/04 12:31:42;;;;;;;0.00;0.00;;;27.40;1.00;;;;;;5073860;28;20110;-74
2022/07/04 12:34:15;;;;;;;0.20;0.15;;;28.10;1.00;;;;;;5055806;28;20040;-73
2022/07/04 12:36:58;;;;;;;0.00;0.00;;;28.20;1.00;;;;;;5074025;28;20106;-73
2022/07/04 12:39:27;;;;;;;0.35;0.10;;;28.40;1.00;;;;;;5073816;28;20116;-73
2022/07/04 12:42:11;;;;;;;0.00;0.00;;;28.40;1.00;;;;;;5073942;28;20091;-73
2022/07/04 12:44:38;;;;;;;0.00;0.00;;;27.00;1.00;;;;;;5073872;28;20051;-73
2022/07/04 12:47:05;;;;;;;0.10;0.10;;;26.20;1.00;;;;;;5073698;28;20046;-74
2022/07/04 12:49:32;;;;;;;0.00;0.00;;;27.00;1.00;;;;;;5073680;28;20044;-75
2022/07/04 12:52:05;;;;;;;0.80;0.47;;;27.50;1.00;;;;;;5073701;28;20036;-74
2022/07/04 12:54:31;;;;;;;0.00;0.00;;;28.10;1.00;;;;;;5072558;28;20045;-74
2022/07/04 12:57:09;;;;;;;0.13;0.13;;;28.60;1.00;;;;;;5073261;28;20067;-75
2022/07/04 12:59:35;;;;;;;0.00;0.00;;;28.80;1.00;;;;;;5073739;28;20440;-74
2022/07/04 13:02:01;;;;;;;0.00;0.00;;;29.60;1.00;;;;;;5055490;28;20123;-75
2022/07/04 13:04:27;;;;;;;0.00;0.00;;;30.30;1.00;;;;;;5073387;28;20091;-74
2022/07/04 13:06:54;;;;;;;3.20;0.52;;;28.70;1.00;;;;;;5073383;28;20478;-73
2022/07/04 13:09:19;;;;;;;0.32;0.25;;;27.50;1.00;;;;;;5073160;28;20054;-73
2022/07/04 13:14:29;;;;;;;0.00;0.00;;;27.40;1.00;;;;;;5073302;28;20097;-75